Time;durP1;ratioP1;P1;durP2;ratioP2;P2;SDS_P1;SDS_P2;PMS_P1;PMS_P2;Temp;Humidity;BMP_temperature;BMP_pressure;BME280_temperature;BME280_humidity;BME280_pressure;Samples;Min_cycle;Max_cycle;Signal;HPM_P1;HPM_P2
2021/08/10 00:01:42;;;;;;;7.13;2.97;;;;;;;26.22;47.16;99521.41;5054177;28;20114;-47
2021/08/10 00:04:08;;;;;;;5.60;2.90;;;;;;;26.23;47.25;99516.91;5054240;28;20049;-48
2021/08/10 00:06:37;;;;;;;4.72;3.08;;;;;;;26.21;47.28;99525.06;5053814;28;20107;-47
2021/08/10 00:09:03;;;;;;;7.55;3.10;;;;;;;26.21;47.07;99524.19;5050969;28;20053;-47
2021/08/10 00:11:30;;;;;;;4.70;2.95;;;;;;;26.14;47.26;99521.06;5054227;28;20165;-47
2021/08/10 00:13:57;;;;;;;4.88;2.88;;;;;;;26.15;47.26;99525.44;5053727;28;20086;-48
2021/08/10 00:16:23;;;;;;;4.93;3.13;;;;;;;26.08;47.40;99518.81;5054266;28;20056;-47
2021/08/10 00:18:50;;;;;;;4.53;2.92;;;;;;;26.03;47.50;99515.56;5053603;28;20445;-50
2021/08/10 00:21:17;;;;;;;5.45;3.03;;;;;;;26.01;47.45;99523.69;5053471;28;20045;-48
2021/08/10 00:23:45;;;;;;;6.60;3.08;;;;;;;26.00;47.66;99527.31;5053641;28;20442;-49
2021/08/10 00:26:12;;;;;;;8.05;3.20;;;;;;;25.97;47.67;99524.00;5053851;28;20473;-49
2021/08/10 00:28:39;;;;;;;4.80;2.80;;;;;;;25.93;47.72;99529.50;5053889;28;20544;-48
2021/08/10 00:31:06;;;;;;;5.65;2.85;;;;;;;25.93;47.57;99534.84;5053507;28;20049;-48
2021/08/10 00:33:32;;;;;;;4.47;2.92;;;;;;;25.95;47.65;99529.41;5051860;28;20557;-48
2021/08/10 00:35:59;;;;;;;5.70;2.83;;;;;;;25.92;47.66;99534.97;5051215;28;20040;-49
2021/08/10 00:38:26;;;;;;;5.97;3.10;;;;;;;25.94;47.64;99527.72;5045221;28;20464;-48
2021/08/10 00:40:55;;;;;;;8.63;3.00;;;;;;;25.93;47.76;99536.69;5048706;28;20041;-48
2021/08/10 00:43:29;;;;;;;5.25;2.97;;;;;;;25.95;47.92;99540.09;5040337;28;20041;-49
2021/08/10 00:45:56;;;;;;;;;;;;;;;25.96;48.02;99530.28;5043297;28;20057;-48
2021/08/10 00:48:22;;;;;;;5.78;3.20;;;;;;;25.98;47.80;99533.69;5033544;28;19924;-46
2021/08/10 00:50:49;;;;;;;5.40;3.00;;;;;;;25.97;47.68;99524.00;5051196;28;20099;-45
2021/08/10 00:53:16;;;;;;;6.65;3.00;;;;;;;26.00;47.82;99535.34;5044343;28;20041;-47
2021/08/10 00:55:42;;;;;;;5.35;3.05;;;;;;;26.01;47.93;99529.00;5047640;28;20112;-48
2021/08/10 00:58:10;;;;;;;7.47;3.00;;;;;;;26.01;47.95;99523.69;5052480;28;20114;-48
2021/08/10 01:00:37;;;;;;;6.32;3.05;;;;;;;26.00;47.82;99538.00;5053051;28;20053;-48
2021/08/10 01:03:04;;;;;;;5.65;3.17;;;;;;;25.96;48.01;99531.16;5052925;28;20045;-49
2021/08/10 01:05:31;;;;;;;6.65;3.17;;;;;;;25.98;47.97;99529.25;5053344;28;20049;-48
2021/08/10 01:08:00;;;;;;;5.60;3.17;;;;;;;25.98;47.95;99525.69;5047566;28;20041;-49
2021/08/10 01:10:30;;;;;;;4.63;3.10;;;;;;;26.00;47.77;99527.31;5039696;28;20041;-48
2021/08/10 01:12:59;;;;;;;4.60;2.85;;;;;;;25.99;47.94;99524.75;5043301;28;20041;-49
2021/08/10 01:15:30;;;;;;;4.18;2.83;;;;;;;25.99;47.77;99528.25;5034309;28;20488;-49
2021/08/10 01:17:59;;;;;;;3.97;2.75;;;;;;;25.98;47.74;99523.91;5049654;28;20045;-49
2021/08/10 01:20:33;;;;;;;5.13;2.90;;;;;;;25.97;47.80;99526.66;5042781;28;20041;-48
2021/08/10 01:23:00;;;;;;;4.55;2.92;;;;;;;25.97;47.87;99527.50;5052983;28;20116;-49
2021/08/10 01:25:33;;;;;;;5.97;3.00;;;;;;;25.96;47.88;99517.81;5043740;28;20046;-48
2021/08/10 01:28:11;;;;;;;5.30;3.00;;;;;;;25.95;47.70;99526.75;5038062;28;20080;-48
2021/08/10 01:30:43;;;;;;;6.25;2.90;;;;;;;25.94;47.79;99519.72;5032812;28;20053;-48
2021/08/10 01:33:11;;;;;;;5.60;3.00;;;;;;;25.94;47.85;99525.06;5048983;28;20057;-49
2021/08/10 01:35:38;;;;;;;3.80;2.80;;;;;;;25.93;47.72;99518.84;5043414;28;20084;-48
2021/08/10 01:38:04;;;;;;;4.50;2.88;;;;;;;25.93;47.84;99520.66;5040059;28;20098;-49
2021/08/10 01:40:31;;;;;;;4.97;2.90;;;;;;;25.93;47.86;99515.31;5043239;28;20049;-49
2021/08/10 01:43:00;;;;;;;4.68;2.97;;;;;;;25.93;47.93;99521.50;5040105;28;20053;-48
2021/08/10 01:45:27;;;;;;;5.35;3.22;;;;;;;25.93;47.83;99536.69;5035466;28;20099;-48
2021/08/10 01:47:54;;;;;;;4.60;3.17;;;;;;;25.88;47.96;99544.09;5050812;28;20057;-48
2021/08/10 01:50:23;;;;;;;4.35;3.30;;;;;;;25.88;47.86;99544.09;5050096;28;20487;-49
2021/08/10 01:52:49;;;;;;;4.47;2.88;;;;;;;25.87;47.98;99550.41;5052295;28;20053;-48
2021/08/10 01:55:18;;;;;;;4.82;3.00;;;;;;;25.89;47.84;99554.66;5052484;28;20099;-48
2021/08/10 01:57:45;;;;;;;6.40;3.05;;;;;;;25.82;47.94;99553.34;5051983;28;20090;-48
2021/08/10 02:00:13;;;;;;;5.22;3.10;;;;;;;25.76;47.98;99558.22;5038494;28;20088;-49
2021/08/10 02:02:39;;;;;;;5.47;2.90;;;;;;;25.80;47.87;99557.06;5038351;28;20057;-49
2021/08/10 02:05:07;;;;;;;4.65;3.00;;;;;;;25.79;48.06;99550.88;5042638;28;20106;-48
2021/08/10 02:07:35;;;;;;;7.93;3.20;;;;;;;25.80;47.95;99557.06;5040995;28;20048;-48
2021/08/10 02:10:01;;;;;;;6.07;3.30;;;;;;;25.62;48.29;99554.63;5046436;28;20108;-47
2021/08/10 02:12:28;;;;;;;5.28;3.10;;;;;;;25.65;48.25;99561.56;5042341;28;20068;-48
2021/08/10 02:14:55;;;;;;;9.90;3.42;;;;;;;25.69;48.20;99561.28;5044857;28;20102;-48
2021/08/10 02:17:22;;;;;;;6.68;3.30;;;;;;;25.62;48.51;99553.78;5036615;28;20054;-47
2021/08/10 02:19:48;;;;;;;6.28;3.20;;;;;;;25.54;48.56;99547.09;5032267;28;20045;-47
2021/08/10 02:22:16;;;;;;;5.32;3.03;;;;;;;25.50;48.57;99552.72;5040779;28;20495;-47
2021/08/10 02:24:45;;;;;;;5.00;3.38;;;;;;;25.56;48.50;99540.81;5032161;28;20471;-48
2021/08/10 02:27:16;;;;;;;5.70;3.28;;;;;;;25.43;48.65;99532.72;5037215;28;20114;-47
2021/08/10 02:29:44;;;;;;;4.43;3.22;;;;;;;25.38;48.86;99534.81;5044239;28;20495;-48
2021/08/10 02:32:12;;;;;;;4.65;3.10;;;;;;;25.40;48.77;99540.94;5042185;28;20049;-47
2021/08/10 02:34:39;;;;;;;6.30;3.05;;;;;;;25.44;48.74;99539.78;5046051;28;20079;-48
2021/08/10 02:37:06;;;;;;;6.80;3.10;;;;;;;25.38;48.79;99541.03;5045816;28;20090;-48
2021/08/10 02:39:32;;;;;;;7.03;3.33;;;;;;;25.38;48.73;99546.34;5049011;28;20053;-48
2021/08/10 02:42:01;;;;;;;4.20;2.90;;;;;;;25.44;48.65;99545.13;5047430;28;20190;-48
2021/08/10 02:44:28;;;;;;;4.70;3.13;;;;;;;25.42;48.66;99553.22;5042745;28;20060;-49
2021/08/10 02:46:54;;;;;;;6.65;3.25;;;;;;;25.38;48.71;99548.16;5037439;28;20454;-47
2021/08/10 02:49:21;;;;;;;5.50;3.10;;;;;;;25.37;48.85;99551.78;5042812;28;20037;-49
2021/08/10 02:51:48;;;;;;;9.63;3.05;;;;;;;25.43;48.69;99554.06;5042792;28;20071;-48
2021/08/10 02:54:15;;;;;;;5.82;3.00;;;;;;;25.38;48.57;99550.81;5049263;28;20037;-48
2021/08/10 02:56:45;;;;;;;5.28;3.28;;;;;;;25.30;48.82;99545.94;5051406;28;20048;-48
2021/08/10 02:59:16;;;;;;;3.42;2.90;;;;;;;25.28;48.73;99540.75;5047644;28;20052;-49
2021/08/10 03:01:45;;;;;;;6.53;3.20;;;;;;;25.30;48.75;99549.50;5053901;28;20048;-48
2021/08/10 03:04:12;;;;;;;6.90;3.25;;;;;;;25.34;48.85;99536.84;5055325;28;20453;-47
2021/08/10 03:06:39;;;;;;;6.22;3.05;;;;;;;25.39;48.68;99536.53;5055186;28;20163;-48
2021/08/10 03:09:05;;;;;;;4.68;3.00;;;;;;;25.41;48.68;99539.97;5054879;28;20044;-47
2021/08/10 03:11:34;;;;;;;4.80;2.97;;;;;;;25.44;48.58;99539.78;5054818;28;20492;-48
2021/08/10 03:14:01;;;;;;;5.32;3.25;;;;;;;25.46;48.62;99535.22;5054958;28;20091;-47
2021/08/10 03:16:31;;;;;;;6.22;3.15;;;;;;;25.47;48.54;99531.56;5054885;28;20491;-48
2021/08/10 03:19:00;;;;;;;6.32;3.13;;;;;;;25.48;48.44;99535.97;5055280;28;20067;-47
2021/08/10 03:21:26;;;;;;;5.82;3.30;;;;;;;25.51;48.42;99528.63;5054566;28;20041;-47
2021/08/10 03:23:54;;;;;;;5.57;3.10;;;;;;;25.46;48.46;99533.38;5055241;28;20049;-48
2021/08/10 03:26:21;;;;;;;6.03;3.17;;;;;;;25.43;48.57;99538.06;5054802;28;20130;-48
2021/08/10 03:28:48;;;;;;;7.85;3.30;;;;;;;25.45;48.46;99533.47;5055058;28;20053;-49
2021/08/10 03:31:14;;;;;;;5.78;3.17;;;;;;;25.40;48.50;99539.13;5054497;28;20037;-48
2021/08/10 03:33:43;;;;;;;6.63;3.50;;;;;;;25.34;48.68;99544.84;5054389;28;20090;-47
2021/08/10 03:36:09;;;;;;;5.85;3.28;;;;;;;25.39;48.51;99544.53;5054184;28;20091;-47
2021/08/10 03:38:36;;;;;;;5.90;3.35;;;;;;;25.43;48.53;99540.72;5053300;28;20114;-48
2021/08/10 03:41:03;;;;;;;6.53;3.20;;;;;;;25.41;48.44;99545.31;5054592;28;20048;-47
2021/08/10 03:43:30;;;;;;;6.90;3.30;;;;;;;25.41;48.48;99540.81;5049352;28;20123;-48
2021/08/10 03:45:57;;;;;;;6.95;3.40;;;;;;;25.42;48.36;99542.53;5047049;28;20105;-48
2021/08/10 03:48:24;;;;;;;5.72;3.30;;;;;;;25.47;48.24;99547.56;5054997;28;20044;-48
2021/08/10 03:50:52;;;;;;;6.50;3.20;;;;;;;25.43;48.48;99546.91;5054728;28;20057;-48
2021/08/10 03:53:20;;;;;;;17.65;3.92;;;;;;;25.47;48.75;99540.44;5054195;28;20049;-47
2021/08/10 03:55:48;;;;;;;7.28;3.55;;;;;;;25.48;48.72;99546.63;5046717;28;20045;-44
2021/08/10 03:58:15;;;;;;;11.10;3.60;;;;;;;25.49;48.54;99561.69;5054504;28;20045;-43
2021/08/10 04:00:42;;;;;;;9.82;3.50;;;;;;;25.48;48.68;99558.16;5054302;28;20083;-44
2021/08/10 04:03:10;;;;;;;12.55;3.80;;;;;;;25.49;48.83;99559.00;5053841;28;20053;-49
2021/08/10 04:05:39;;;;;;;10.35;3.60;;;;;;;25.51;48.99;99554.44;5053737;28;20045;-48
2021/08/10 04:08:09;;;;;;;17.65;3.97;;;;;;;25.52;49.22;99553.50;5053893;28;20139;-48
2021/08/10 04:10:36;;;;;;;12.80;3.60;;;;;;;25.53;48.74;99556.06;5053555;28;20768;-47
2021/08/10 04:13:03;;;;;;;7.50;3.47;;;;;;;25.58;48.57;99542.44;5053533;28;20045;-47
2021/08/10 04:15:29;;;;;;;8.55;3.70;;;;;;;25.57;48.29;99546.06;5054095;28;20053;-47
2021/08/10 04:17:56;;;;;;;9.23;3.38;;;;;;;25.59;48.56;99546.81;5053979;28;20049;-47
2021/08/10 04:20:23;;;;;;;7.38;3.70;;;;;;;25.54;48.57;99547.09;5054204;28;20049;-47
2021/08/10 04:22:50;;;;;;;6.78;3.30;;;;;;;25.58;48.24;99547.75;5053171;28;20053;-48
2021/08/10 04:25:18;;;;;;;6.20;3.25;;;;;;;25.59;48.30;99553.94;5054286;28;20045;-47
2021/08/10 04:27:45;;;;;;;8.48;3.40;;;;;;;25.56;48.21;99544.34;5053966;28;20098;-47
2021/08/10 04:30:12;;;;;;;8.35;3.33;;;;;;;25.51;48.44;99546.44;5053882;28;20060;-47
2021/08/10 04:32:39;;;;;;;6.40;3.38;;;;;;;25.46;48.50;99538.72;5053655;28;20071;-47
2021/08/10 04:35:07;;;;;;;10.48;3.53;;;;;;;25.46;48.62;99537.88;5054148;28;20044;-47
2021/08/10 04:37:33;;;;;;;8.57;3.83;;;;;;;25.41;48.81;99540.81;5053653;28;20559;-48
2021/08/10 04:40:00;;;;;;;9.98;3.50;;;;;;;25.33;48.92;99546.63;5043958;28;20101;-48
2021/08/10 04:42:28;;;;;;;7.63;3.80;;;;;;;25.24;49.08;99544.56;5054056;28;20576;-48
2021/08/10 04:44:55;;;;;;;7.18;3.67;;;;;;;25.24;49.15;99539.22;5047802;28;20380;-48
2021/08/10 04:47:21;;;;;;;8.32;4.10;;;;;;;25.15;49.26;99539.75;5046048;28;20095;-47
2021/08/10 04:49:48;;;;;;;7.07;4.00;;;;;;;25.10;49.55;99539.16;5045966;28;20573;-48
2021/08/10 04:52:15;;;;;;;9.18;4.18;;;;;;;25.03;49.62;99535.16;5051928;28;20106;-46
2021/08/10 04:54:42;;;;;;;7.53;4.18;;;;;;;25.04;49.77;99527.06;5053585;28;20087;-47
2021/08/10 04:57:08;;;;;;;8.40;4.53;;;;;;;25.02;49.80;99528.13;5047210;28;20041;-48
2021/08/10 04:59:36;;;;;;;7.75;3.88;;;;;;;25.05;49.94;99535.94;5041753;28;20049;-48
2021/08/10 05:02:04;;;;;;;7.90;3.80;;;;;;;25.07;49.71;99529.56;5035831;28;20056;-47
2021/08/10 05:04:30;;;;;;;8.65;4.95;;;;;;;25.04;49.99;99528.88;5033181;28;20050;-46
2021/08/10 05:06:57;;;;;;;6.40;3.90;;;;;;;25.00;49.77;99522.88;5033421;28;20041;-47
2021/08/10 05:09:24;;;;;;;8.60;4.20;;;;;;;24.98;50.02;99521.25;5038124;28;20640;-47
2021/08/10 05:11:52;;;;;;;8.15;3.90;;;;;;;24.81;50.46;99519.63;5051964;28;20049;-46
2021/08/10 05:14:19;;;;;;;8.55;3.75;;;;;;;24.88;50.04;99521.81;5051072;28;20041;-47
2021/08/10 05:16:47;;;;;;;7.55;3.38;;;;;;;24.91;50.12;99518.09;5052456;28;20045;-47
2021/08/10 05:19:13;;;;;;;8.45;4.15;;;;;;;24.96;49.96;99524.00;5052731;28;20049;-46
2021/08/10 05:21:40;;;;;;;6.53;3.80;;;;;;;24.97;49.99;99520.41;5052001;28;20049;-47
2021/08/10 05:24:07;;;;;;;6.05;3.40;;;;;;;25.05;49.63;99517.28;5051345;28;20552;-48
2021/08/10 05:26:34;;;;;;;8.25;3.90;;;;;;;25.09;49.75;99519.66;5052558;28;20562;-47
2021/08/10 05:29:00;;;;;;;6.45;3.60;;;;;;;25.11;49.77;99511.56;5051681;28;20045;-46
2021/08/10 05:31:27;;;;;;;7.68;3.97;;;;;;;25.14;49.77;99514.91;5048669;28;20442;-47
2021/08/10 05:33:55;;;;;;;9.45;4.35;;;;;;;25.08;49.84;99511.75;5051894;28;20053;-47
2021/08/10 05:36:22;;;;;;;7.63;4.00;;;;;;;25.01;50.04;99513.06;5052475;28;20102;-47
2021/08/10 05:38:50;;;;;;;7.72;4.03;;;;;;;25.02;49.94;99506.78;5051160;28;20400;-47
2021/08/10 05:41:17;;;;;;;8.75;4.00;;;;;;;25.02;50.06;99512.13;5051321;28;20045;-47
2021/08/10 05:43:44;;;;;;;7.90;3.80;;;;;;;25.08;49.98;99514.41;5050584;28;20466;-48
2021/08/10 05:46:10;;;;;;;8.32;3.70;;;;;;;25.13;49.87;99520.31;5051136;28;20049;-47
2021/08/10 05:48:37;;;;;;;7.95;4.03;;;;;;;25.19;49.65;99519.94;5037244;28;20045;-46
2021/08/10 05:51:05;;;;;;;11.85;4.05;;;;;;;25.26;49.58;99509.75;5041645;28;20054;-47
2021/08/10 05:53:32;;;;;;;8.48;4.15;;;;;;;25.28;49.22;99513.19;5031495;28;20057;-46
2021/08/10 05:55:58;;;;;;;10.60;4.10;;;;;;;25.31;49.47;99513.00;5034047;28;20100;-46
2021/08/10 05:58:25;;;;;;;7.05;3.90;;;;;;;25.34;49.43;99520.84;5051072;28;20196;-46
2021/08/10 06:00:52;;;;;;;8.75;4.10;;;;;;;25.39;49.34;99525.88;5047838;28;20053;-46
2021/08/10 06:03:19;;;;;;;7.75;4.03;;;;;;;25.41;49.22;99518.63;5048820;28;20045;-47
2021/08/10 06:05:45;;;;;;;8.90;3.90;;;;;;;25.45;49.17;99520.16;5051788;28;20471;-48
2021/08/10 06:08:13;;;;;;;8.13;3.80;;;;;;;25.47;49.32;99520.91;5049849;28;20049;-47
2021/08/10 06:10:40;;;;;;;9.60;3.90;;;;;;;25.50;49.18;99515.38;5047329;28;20041;-46
2021/08/10 06:13:07;;;;;;;7.40;3.95;;;;;;;25.51;48.90;99519.75;5052223;28;20123;-47
2021/08/10 06:15:34;;;;;;;7.45;3.88;;;;;;;25.51;48.95;99525.97;5051652;28;20048;-48
2021/08/10 06:18:01;;;;;;;5.68;3.80;;;;;;;25.53;48.84;99523.19;5051954;28;20041;-48
2021/08/10 06:20:27;;;;;;;8.52;3.70;;;;;;;25.59;48.69;99528.16;5051802;28;20099;-47
2021/08/10 06:22:54;;;;;;;7.53;3.70;;;;;;;25.62;48.71;99524.41;5051808;28;20434;-48
2021/08/10 06:25:22;;;;;;;7.60;3.80;;;;;;;25.67;48.63;99531.19;5051930;28;20040;-46
2021/08/10 06:27:49;;;;;;;8.15;4.28;;;;;;;25.65;48.64;99533.09;5051847;28;20106;-46
2021/08/10 06:30:16;;;;;;;8.43;4.30;;;;;;;25.70;48.63;99536.31;5051958;28;20107;-46
2021/08/10 06:32:42;;;;;;;8.38;4.10;;;;;;;25.64;48.81;99531.38;5051635;28;20056;-46
2021/08/10 06:35:10;;;;;;;7.63;3.90;;;;;;;25.69;48.67;99533.75;5051619;28;20041;-46
2021/08/10 06:37:37;;;;;;;8.82;4.03;;;;;;;25.70;48.69;99544.31;5046026;28;20045;-46
2021/08/10 06:40:04;;;;;;;9.50;4.00;;;;;;;25.80;48.59;99538.38;5050896;28;20045;-47
2021/08/10 06:42:32;;;;;;;8.20;4.00;;;;;;;25.84;48.44;99545.25;5040182;28;20049;-46
2021/08/10 06:44:59;;;;;;;9.15;3.97;;;;;;;25.90;48.21;99537.72;5048908;28;20446;-47
2021/08/10 06:47:26;;;;;;;8.38;4.00;;;;;;;25.95;48.19;99545.44;5044338;28;20095;-46
2021/08/10 06:49:53;;;;;;;10.80;4.07;;;;;;;25.99;48.20;99532.75;5048777;28;20388;-48
2021/08/10 06:52:20;;;;;;;9.65;4.40;;;;;;;25.97;48.07;99540.84;5051255;28;20045;-46
2021/08/10 06:54:46;;;;;;;9.55;3.65;;;;;;;25.97;48.30;99532.84;5051310;28;20457;-46
2021/08/10 06:57:13;;;;;;;6.95;3.67;;;;;;;25.96;48.37;99541.84;5049838;28;20049;-47
2021/08/10 06:59:41;;;;;;;8.75;4.20;;;;;;;26.00;48.24;99545.13;5051013;28;20053;-47
2021/08/10 07:02:09;;;;;;;6.97;3.92;;;;;;;26.05;48.25;99546.53;5050833;28;20450;-46
2021/08/10 07:04:38;;;;;;;6.22;3.83;;;;;;;26.11;48.04;99559.53;5051290;28;20060;-47
2021/08/10 07:07:05;;;;;;;8.82;3.70;;;;;;;26.11;48.05;99554.19;5045921;28;20055;-46
2021/08/10 07:09:32;;;;;;;6.97;3.90;;;;;;;26.13;48.45;99549.59;5051424;28;20067;-48
2021/08/10 07:11:58;;;;;;;6.57;3.60;;;;;;;26.18;48.08;99556.44;5051329;28;20052;-49
2021/08/10 07:14:25;;;;;;;8.25;3.70;;;;;;;26.18;48.40;99556.44;5050884;28;20049;-47
2021/08/10 07:16:53;;;;;;;6.15;3.53;;;;;;;26.23;47.95;99554.31;5051142;28;20099;-47
2021/08/10 07:19:20;;;;;;;7.22;3.47;;;;;;;26.30;47.84;99548.47;5050959;28;20475;-47
2021/08/10 07:21:47;;;;;;;7.28;3.70;;;;;;;26.32;47.97;99548.38;5051273;28;20107;-47
2021/08/10 07:24:13;;;;;;;9.32;3.60;;;;;;;26.34;47.88;99546.44;5051121;28;20521;-47
2021/08/10 07:26:40;;;;;;;7.93;3.80;;;;;;;26.37;47.94;99546.25;5051158;28;20094;-47
2021/08/10 07:29:07;;;;;;;8.52;3.80;;;;;;;26.38;47.95;99537.28;5050944;28;20048;-47
2021/08/10 07:31:34;;;;;;;7.40;3.95;;;;;;;26.40;48.02;99535.34;5050006;28;20065;-48
2021/08/10 07:34:02;;;;;;;6.88;3.53;;;;;;;26.44;47.96;99542.19;5050991;28;20099;-47
2021/08/10 07:36:28;;;;;;;6.25;3.45;;;;;;;26.46;47.66;99540.31;5051005;28;20087;-47
2021/08/10 07:38:55;;;;;;;6.80;3.55;;;;;;;26.48;48.38;99543.72;5049862;28;20056;-47
2021/08/10 07:41:22;;;;;;;9.50;3.95;;;;;;;26.53;47.71;99540.75;5047854;28;20049;-47
2021/08/10 07:43:48;;;;;;;5.90;3.50;;;;;;;26.61;47.49;99534.91;5030832;28;20049;-48
2021/08/10 07:46:15;;;;;;;8.10;4.03;;;;;;;26.63;47.76;99524.97;5030175;28;20050;-48
2021/08/10 07:48:42;;;;;;;7.70;4.03;;;;;;;26.63;47.93;99535.66;5033339;28;20038;-47
2021/08/10 07:51:10;;;;;;;8.13;3.83;;;;;;;26.60;48.00;99525.16;5033337;28;20529;-48
2021/08/10 07:53:37;;;;;;;8.00;4.05;;;;;;;26.65;48.10;99528.38;5032847;28;20057;-47
2021/08/10 07:56:04;;;;;;;8.25;4.00;;;;;;;26.68;47.73;99520.19;5032877;28;20049;-47
2021/08/10 07:58:31;;;;;;;8.27;3.70;;;;;;;26.71;47.79;99518.16;5047101;28;20071;-48
2021/08/10 08:00:57;;;;;;;7.32;4.00;;;;;;;26.73;47.75;99520.69;5046660;28;20057;-47
2021/08/10 08:03:24;;;;;;;7.32;3.95;;;;;;;26.75;47.49;99515.25;5032441;28;20107;-47
2021/08/10 08:05:51;;;;;;;7.97;3.60;;;;;;;26.77;47.51;99516.84;5034019;28;20080;-48
2021/08/10 08:08:22;;;;;;;7.13;3.70;;;;;;;26.84;47.46;99522.66;5045267;28;20141;-47
2021/08/10 08:10:48;;;;;;;7.75;3.95;;;;;;;26.85;47.59;99519.88;5035351;28;20049;-47
2021/08/10 08:13:15;;;;;;;8.98;4.15;;;;;;;26.84;47.55;99526.16;5034632;28;20050;-48
2021/08/10 08:15:42;;;;;;;6.10;3.50;;;;;;;26.86;47.35;99524.25;5033900;28;20500;-47
2021/08/10 08:18:09;;;;;;;8.15;4.10;;;;;;;26.88;47.50;99527.66;5034365;28;20103;-47
2021/08/10 08:20:36;;;;;;;7.00;3.80;;;;;;;26.90;47.50;99520.41;5033976;28;20041;-47
2021/08/10 08:23:03;;;;;;;6.82;3.55;;;;;;;26.92;47.43;99518.47;5033811;28;20195;-47
2021/08/10 08:25:31;;;;;;;6.45;4.10;;;;;;;26.92;47.55;99510.44;5033867;28;20579;-47
2021/08/10 08:27:58;;;;;;;7.68;3.58;;;;;;;26.97;47.46;99511.94;5033893;28;20457;-47
2021/08/10 08:30:25;;;;;;;9.73;4.30;;;;;;;26.99;47.53;99512.72;5034324;28;20103;-47
2021/08/10 08:32:51;;;;;;;10.57;3.78;;;;;;;26.99;47.62;99507.38;5033766;28;20049;-47
2021/08/10 08:35:18;;;;;;;7.10;3.90;;;;;;;27.01;47.50;99510.78;5034141;28;20033;-47
2021/08/10 08:37:45;;;;;;;8.88;4.13;;;;;;;27.04;47.51;99507.88;5033658;28;20096;-47
2021/08/10 08:40:12;;;;;;;6.43;3.83;;;;;;;27.05;47.47;99493.56;5036990;28;20057;-48
2021/08/10 08:42:41;;;;;;;5.95;3.72;;;;;;;27.06;47.48;99495.25;5053610;28;20499;-48
2021/08/10 08:45:08;;;;;;;7.72;3.80;;;;;;;27.07;47.49;99502.34;5037276;28;20049;-46
2021/08/10 08:47:35;;;;;;;6.07;3.70;;;;;;;27.12;47.62;99500.16;5041990;28;20053;-47
2021/08/10 08:50:02;;;;;;;6.88;4.25;;;;;;;27.12;47.66;99500.16;5038653;28;20049;-47
2021/08/10 08:52:28;;;;;;;7.45;4.28;;;;;;;27.14;47.48;99498.25;5033629;28;20099;-46
2021/08/10 08:54:55;;;;;;;6.10;4.00;;;;;;;27.16;47.22;99495.47;5033399;28;20503;-46
2021/08/10 08:57:22;;;;;;;7.70;4.10;;;;;;;27.15;47.28;99501.78;5033355;28;20041;-46
2021/08/10 08:59:50;;;;;;;6.30;4.00;;;;;;;27.17;47.66;99498.03;5033126;28;20496;-47
2021/08/10 09:02:17;;;;;;;8.20;3.95;;;;;;;27.16;47.77;99484.75;5033064;28;20480;-47
2021/08/10 09:04:44;;;;;;;8.65;4.20;;;;;;;27.16;47.71;99495.47;5032869;28;20053;-46
2021/08/10 09:07:11;;;;;;;6.82;3.90;;;;;;;27.22;47.53;99503.94;5033174;28;20050;-48
2021/08/10 09:09:38;;;;;;;6.78;4.00;;;;;;;27.23;47.14;99492.25;5033459;28;20107;-46
2021/08/10 09:12:10;;;;;;;6.45;4.10;;;;;;;27.27;47.63;99490.25;5032924;28;20099;-47
2021/08/10 09:14:43;;;;;;;6.80;3.90;;;;;;;27.30;47.30;99493.56;5033096;28;20049;-46
2021/08/10 09:17:12;;;;;;;8.32;3.95;;;;;;;27.32;47.12;99495.25;5033055;28;20046;-46
2021/08/10 09:19:44;;;;;;;6.78;4.00;;;;;;;27.35;47.46;99495.06;5032939;28;20041;-46
2021/08/10 09:22:15;;;;;;;7.65;4.40;;;;;;;27.35;47.61;99505.75;5046153;28;20414;-46
2021/08/10 09:24:43;;;;;;;7.10;4.18;;;;;;;27.35;47.27;99500.41;5033009;28;20049;-47
2021/08/10 09:27:26;;;;;;;6.63;4.03;;;;;;;27.35;46.94;99490.53;5032990;28;20526;-46
2021/08/10 09:29:53;;;;;;;7.55;4.20;;;;;;;27.35;47.65;99484.34;5039230;28;20049;-47
2021/08/10 09:32:21;;;;;;;7.22;4.15;;;;;;;27.36;47.21;99484.25;5052560;28;20102;-46
2021/08/10 09:34:49;;;;;;;7.68;4.10;;;;;;;27.37;47.60;99482.41;5033612;28;20140;-46
2021/08/10 09:37:16;;;;;;;7.10;4.40;;;;;;;27.41;47.47;99491.94;5032487;28;20046;-46
2021/08/10 09:39:43;;;;;;;7.78;4.10;;;;;;;27.43;47.49;99487.31;5032490;28;20049;-46
2021/08/10 09:42:12;;;;;;;7.25;4.30;;;;;;;27.44;47.56;99489.03;5046288;28;20041;-46
2021/08/10 09:44:40;;;;;;;7.20;4.28;;;;;;;27.46;47.19;99481.75;5032302;28;20085;-47
2021/08/10 09:47:07;;;;;;;6.90;4.03;;;;;;;27.46;47.09;99489.78;5032594;28;20038;-46
2021/08/10 09:49:45;;;;;;;7.38;4.25;;;;;;;27.47;47.34;99484.34;5032346;28;20053;-46
2021/08/10 09:52:24;;;;;;;8.50;4.28;;;;;;;27.50;47.24;99483.25;5032258;28;20045;-46
2021/08/10 09:54:50;;;;;;;7.40;4.38;;;;;;;27.53;47.17;99484.84;5032559;28;20123;-47
2021/08/10 09:57:17;;;;;;;6.10;4.00;;;;;;;27.53;47.11;99487.50;5032213;28;20088;-47
2021/08/10 09:59:44;;;;;;;7.90;4.20;;;;;;;27.55;47.53;99482.91;5032430;28;20139;-47
2021/08/10 10:02:17;;;;;;;9.35;4.38;;;;;;;27.56;47.20;99477.44;5032073;28;20557;-47
2021/08/10 10:04:49;;;;;;;8.70;4.43;;;;;;;27.59;47.22;99476.38;5032102;28;20504;-48
2021/08/10 10:07:16;;;;;;;7.80;4.43;;;;;;;27.58;47.24;99470.16;5032347;28;20049;-47
2021/08/10 10:09:43;;;;;;;8.05;4.20;;;;;;;27.61;47.30;99479.81;5030724;28;20049;-46
2021/08/10 10:12:10;;;;;;;7.15;4.70;;;;;;;27.59;47.02;99481.75;5032452;28;20072;-46
2021/08/10 10:14:38;;;;;;;7.90;4.80;;;;;;;27.59;47.10;99474.56;5031963;28;20045;-47
2021/08/10 10:17:04;;;;;;;8.98;4.57;;;;;;;27.61;47.04;99464.59;5031710;28;20042;-46
2021/08/10 10:19:31;;;;;;;7.38;4.40;;;;;;;27.62;47.04;99463.59;5031591;28;20045;-48
2021/08/10 10:22:03;;;;;;;8.18;4.93;;;;;;;27.62;46.88;99452.06;5032065;28;20045;-46
2021/08/10 10:24:30;;;;;;;8.43;4.38;;;;;;;27.65;47.25;99454.50;5031827;28;20049;-47
2021/08/10 10:27:00;;;;;;;7.75;4.25;;;;;;;27.63;46.99;99451.94;5031838;28;20119;-45
2021/08/10 10:29:26;;;;;;;8.73;4.30;;;;;;;27.68;46.89;99455.16;5045922;28;20107;-46
2021/08/10 10:31:53;;;;;;;9.35;4.38;;;;;;;27.65;47.03;99455.38;5031683;28;20050;-46
2021/08/10 10:34:20;;;;;;;10.80;4.32;;;;;;;27.71;46.99;99451.38;5031912;28;20095;-46
2021/08/10 10:36:48;;;;;;;6.93;4.20;;;;;;;27.74;46.98;99447.63;5031647;28;20526;-46
2021/08/10 10:39:23;;;;;;;9.70;4.80;;;;;;;27.74;47.10;99445.78;5031557;28;20068;-46
2021/08/10 10:41:53;;;;;;;9.35;4.38;;;;;;;27.75;47.28;99446.66;5048417;28;20048;-45
2021/08/10 10:44:38;;;;;;;8.27;4.70;;;;;;;27.74;47.26;99444.94;5042233;28;20446;-46
2021/08/10 10:47:38;;;;;;;7.28;4.53;;;;;;;27.72;47.16;99450.41;5031558;28;20045;-46
2021/08/10 10:50:12;;;;;;;7.38;4.80;;;;;;;27.71;46.66;99450.53;5031360;28;20049;-46
2021/08/10 10:52:39;;;;;;;12.52;4.80;;;;;;;27.68;47.31;99439.09;5031795;28;20446;-46
2021/08/10 10:55:08;;;;;;;9.05;4.55;;;;;;;27.65;46.97;99436.63;5031876;28;20045;-46
2021/08/10 10:57:35;;;;;;;7.82;4.57;;;;;;;27.67;47.06;99439.19;5045065;28;20046;-46
2021/08/10 11:00:19;;;;;;;9.23;4.63;;;;;;;27.67;46.70;99437.38;5031425;28;20103;-47
2021/08/10 11:03:09;;;;;;;9.13;4.90;;;;;;;27.66;47.43;99432.97;5031563;28;20050;-46
2021/08/10 11:05:35;;;;;;;7.30;4.80;;;;;;;27.69;47.30;99432.75;5045436;28;20105;-46
2021/08/10 11:08:04;;;;;;;9.75;4.93;;;;;;;27.69;46.99;99429.22;5040262;28;20442;-46
2021/08/10 11:10:42;;;;;;;7.20;4.75;;;;;;;27.72;46.96;99433.50;5035815;28;20492;-46
2021/08/10 11:13:37;;;;;;;9.68;5.18;;;;;;;27.73;46.94;99432.53;5031262;28;20136;-46
2021/08/10 11:16:05;;;;;;;8.82;4.82;;;;;;;27.77;47.07;99428.66;5031420;28;20467;-46
2021/08/10 11:18:33;;;;;;;8.77;5.18;;;;;;;27.78;46.91;99433.03;5031526;28;20057;-46
2021/08/10 11:21:25;;;;;;;7.47;4.50;;;;;;;27.81;46.91;99427.47;5031254;28;20053;-46
2021/08/10 11:23:52;;;;;;;7.82;4.80;;;;;;;27.79;46.78;99430.25;5034996;28;20053;-46
2021/08/10 11:26:39;;;;;;;9.93;5.43;;;;;;;27.80;46.96;99425.72;5049403;28;20147;-46
2021/08/10 11:29:07;;;;;;;9.50;5.38;;;;;;;27.82;47.07;99426.47;5035259;28;20115;-46
2021/08/10 11:31:39;;;;;;;9.60;5.57;;;;;;;27.79;47.01;99424.03;5035065;28;20421;-46
2021/08/10 11:34:20;;;;;;;11.75;5.57;;;;;;;27.82;46.83;99418.44;5035262;28;20053;-45
2021/08/10 11:36:47;;;;;;;11.55;5.93;;;;;;;27.83;46.32;99412.97;5034955;28;20045;-46
2021/08/10 11:39:14;;;;;;;12.48;6.03;;;;;;;27.87;46.15;99422.47;5034594;28;20049;-46